createdAt,value
2017-04-21T00:00:39.500Z,5.88
2017-04-21T00:01:49.050Z,5.8
2017-04-21T00:02:58.267Z,5.7
2017-04-21T00:04:07.495Z,5.81
2017-04-21T00:05:17.028Z,5.77
2017-04-21T00:06:26.566Z,5.75
2017-04-21T00:07:36.100Z,5.73
2017-04-21T00:08:45.013Z,5.64
2017-04-21T00:09:53.960Z,5.78
2017-04-21T00:11:03.194Z,5.64
2017-04-21T00:12:12.095Z,5.72
2017-04-21T00:13:21.037Z,5.66
2017-04-21T00:14:30.006Z,5.67
2017-04-21T00:15:38.586Z,5.66
2017-04-21T00:16:47.801Z,5.73
2017-04-21T00:17:56.701Z,5.72
2017-04-21T00:19:05.919Z,5.81
2017-04-21T00:20:15.057Z,5.84
2017-04-21T00:21:24.676Z,5.88
2017-04-21T00:22:34.029Z,5.85
2017-04-21T00:23:43.246Z,5.92
2017-04-21T00:24:52.507Z,5.91
2017-04-21T00:26:01.716Z,5.96
2017-04-21T00:27:10.944Z,6.06
2017-04-21T00:28:20.161Z,6.05
2017-04-21T00:29:29.061Z,6.05
2017-04-21T00:30:37.644Z,5.99
2017-04-21T00:31:46.633Z,6.14
2017-04-21T00:32:55.885Z,6.18
2017-04-21T00:34:05.438Z,6.14
2017-04-21T00:35:14.657Z,6.25
2017-04-21T00:36:23.554Z,6.26
2017-04-21T00:37:32.459Z,6.26
2017-04-21T00:38:41.681Z,6.33
2017-04-21T00:39:50.405Z,6.42
2017-04-21T00:40:59.346Z,6.36
2017-04-21T00:42:08.578Z,6.39
2017-04-21T00:43:17.799Z,6.43
2017-04-21T00:44:26.699Z,6.36
2017-04-21T00:45:35.675Z,6.49
2017-04-21T00:46:44.583Z,6.49
2017-04-21T00:47:53.504Z,6.47
2017-04-21T00:49:02.465Z,6.49
2017-04-21T00:50:11.405Z,6.57
2017-04-21T00:51:20.619Z,6.57
2017-04-21T00:52:29.889Z,6.55
2017-04-21T00:53:39.168Z,6.58
2017-04-21T00:54:47.773Z,6.61
2017-04-21T00:55:56.678Z,6.61
2017-04-21T00:57:05.613Z,6.62
2017-04-21T00:58:14.516Z,6.76
2017-04-21T00:59:23.834Z,6.7
2017-04-21T01:00:32.810Z,6.76
2017-04-21T01:01:42.312Z,6.78
2017-04-21T01:02:51.631Z,6.78
2017-04-21T01:04:01.070Z,6.8
2017-04-21T01:05:10.629Z,6.76
2017-04-21T01:06:19.532Z,6.78
2017-04-21T01:07:29.161Z,6.82
2017-04-21T01:08:38.866Z,6.83
2017-04-21T01:09:48.865Z,6.79
2017-04-21T01:10:58.414Z,6.85
2017-04-21T01:12:07.635Z,6.85
2017-04-21T01:13:17.172Z,6.94
2017-04-21T01:14:26.725Z,6.93
2017-04-21T01:15:35.937Z,6.95
2017-04-21T01:16:44.851Z,6.97
2017-04-21T01:17:53.448Z,6.98
2017-04-21T01:19:02.670Z,6.94
2017-04-21T01:20:12.199Z,7.01
2017-04-21T01:21:21.731Z,7.01
2017-04-21T01:22:30.629Z,7.03
2017-04-21T01:23:39.852Z,7.04
2017-04-21T01:24:48.758Z,7.09
2017-04-21T01:25:57.979Z,7.13
2017-04-21T01:27:07.517Z,7.03
2017-04-21T01:28:17.044Z,7.03
2017-04-21T01:29:26.265Z,7.13
2017-04-21T01:30:35.172Z,7.13
2017-04-21T01:31:44.070Z,7.18
2017-04-21T01:32:52.653Z,7.21
2017-04-21T01:34:02.205Z,7.18
2017-04-21T01:35:11.103Z,7.3
2017-04-21T01:36:20.002Z,7.22
2017-04-21T01:37:29.234Z,7.27
2017-04-21T01:38:38.452Z,7.22
2017-04-21T01:39:47.665Z,7.22
2017-04-21T01:40:56.253Z,7.31
2017-04-21T01:42:05.154Z,7.3
2017-04-21T01:43:13.741Z,7.33
2017-04-21T01:44:22.963Z,7.33
2017-04-21T01:45:31.867Z,7.33
2017-04-21T01:46:40.761Z,7.37
2017-04-21T01:47:49.981Z,7.34
2017-04-21T01:48:58.886Z,7.31
2017-04-21T01:50:08.109Z,7.33
2017-04-21T01:51:17.327Z,7.39
2017-04-21T01:52:26.549Z,7.33
2017-04-21T01:53:35.767Z,7.44
2017-04-21T01:54:44.678Z,7.34
2017-04-21T01:55:53.895Z,7.39
2017-04-21T01:57:03.430Z,7.44
2017-04-21T01:58:12.967Z,7.41
2017-04-21T01:59:22.184Z,7.45
2017-04-21T02:00:31.722Z,7.45
2017-04-21T02:01:40.631Z,7.47
2017-04-21T02:02:49.543Z,7.52
2017-04-21T02:03:58.765Z,7.47
2017-04-21T02:05:07.991Z,7.47
2017-04-21T02:06:16.894Z,7.51
2017-04-21T02:07:26.114Z,7.49
2017-04-21T02:08:35.334Z,7.45
2017-04-21T02:09:44.228Z,7.52
2017-04-21T02:10:53.450Z,7.51
2017-04-21T02:12:02.473Z,7.55
2017-04-21T02:13:12.189Z,7.54
2017-04-21T02:14:20.771Z,7.52
2017-04-21T02:15:29.506Z,7.47
2017-04-21T02:16:38.809Z,7.61
2017-04-21T02:17:48.033Z,7.55
2017-04-21T02:18:57.578Z,7.54
2017-04-21T02:20:07.113Z,7.55
2017-04-21T02:21:16.014Z,7.58
2017-04-21T02:22:24.918Z,7.58
2017-04-21T02:23:34.465Z,7.56
2017-04-21T02:24:43.052Z,7.61
2017-04-21T02:25:51.951Z,7.56
2017-04-21T02:27:01.160Z,7.55
2017-04-21T02:28:09.749Z,7.51
2017-04-21T02:29:19.289Z,7.64
2017-04-21T02:30:28.183Z,7.51
2017-04-21T02:31:37.088Z,7.55
2017-04-21T02:32:45.989Z,7.52
2017-04-21T02:33:55.217Z,7.54
2017-04-21T02:35:04.753Z,7.51
2017-04-21T02:36:13.664Z,7.73
2017-04-21T02:37:22.881Z,7.52
2017-04-21T02:38:31.461Z,7.68
2017-04-21T02:39:40.729Z,7.67
2017-04-21T02:40:49.948Z,7.63
2017-04-21T02:41:58.534Z,7.58
2017-04-21T02:43:07.754Z,7.67
2017-04-21T02:44:16.979Z,7.64
2017-04-21T02:45:26.193Z,7.67
2017-04-21T02:46:35.094Z,7.7
2017-04-21T02:47:43.989Z,7.64
2017-04-21T02:48:52.900Z,7.7
2017-04-21T02:50:02.114Z,7.73
2017-04-21T02:51:11.020Z,7.67
2017-04-21T02:52:20.240Z,7.71
2017-04-21T02:53:29.462Z,7.74
2017-04-21T02:54:38.685Z,7.67
2017-04-21T02:55:47.910Z,7.75
2017-04-21T02:56:56.811Z,7.73
2017-04-21T02:58:06.022Z,7.71
2017-04-21T02:59:14.919Z,7.74
2017-04-21T03:00:23.821Z,7.71
2017-04-21T03:01:32.721Z,7.74
2017-04-21T03:02:41.939Z,7.82
2017-04-21T03:03:51.164Z,7.71
2017-04-21T03:05:00.066Z,7.82
2017-04-21T03:06:09.283Z,7.7
2017-04-21T03:07:17.866Z,7.74
2017-04-21T03:08:27.078Z,7.75
2017-04-21T03:09:35.983Z,7.78
2017-04-21T03:10:45.208Z,7.74
2017-04-21T03:11:54.107Z,7.7
2017-04-21T03:13:03.333Z,7.82
2017-04-21T03:14:12.562Z,7.86
2017-04-21T03:15:21.492Z,7.78
2017-04-21T03:16:30.397Z,7.8
2017-04-21T03:17:39.613Z,7.71
2017-04-21T03:18:48.531Z,7.75
2017-04-21T03:19:57.755Z,7.73
2017-04-21T03:21:06.978Z,7.78
2017-04-21T03:22:15.562Z,7.82
2017-04-21T03:23:24.794Z,7.78
2017-04-21T03:24:33.701Z,7.88
2017-04-21T03:25:42.608Z,7.86
2017-04-21T03:26:51.828Z,7.88
2017-04-21T03:28:01.052Z,7.88
2017-04-21T03:29:10.787Z,7.88
2017-04-21T03:30:19.833Z,7.86
2017-04-21T03:31:29.060Z,7.91
2017-04-21T03:32:38.283Z,7.82
2017-04-21T03:33:47.509Z,7.88
2017-04-21T03:34:57.051Z,7.93
2017-04-21T03:36:06.055Z,7.89
2017-04-21T03:37:15.625Z,7.95
2017-04-21T03:38:24.845Z,7.91
2017-04-21T03:39:34.072Z,7.95
2017-04-21T03:40:42.972Z,7.92
2017-04-21T03:41:51.867Z,7.96
2017-04-21T03:43:01.508Z,7.93
2017-04-21T03:44:10.423Z,7.91
2017-04-21T03:45:19.971Z,7.98
2017-04-21T03:46:29.652Z,7.98
2017-04-21T03:47:38.588Z,7.92
2017-04-21T03:48:47.553Z,7.96
2017-04-21T03:49:56.780Z,8.06
2017-04-21T03:51:05.447Z,8.01
2017-04-21T03:52:14.673Z,8.04
2017-04-21T03:53:24.065Z,8.06
2017-04-21T03:54:32.684Z,7.95
2017-04-21T03:55:41.791Z,7.98
2017-04-21T03:56:50.999Z,8.06
2017-04-21T03:58:00.289Z,7.96
2017-04-21T03:59:09.511Z,7.92
2017-04-21T04:00:18.413Z,7.99
2017-04-21T04:01:27.356Z,7.96
2017-04-21T04:02:36.893Z,7.98
2017-04-21T04:03:46.452Z,7.96
2017-04-21T04:04:55.676Z,7.93
2017-04-21T04:06:04.587Z,8.06
2017-04-21T04:07:13.172Z,8.01
2017-04-21T04:08:22.079Z,7.98
2017-04-21T04:09:30.982Z,7.95
2017-04-21T04:10:40.513Z,8.04
2017-04-21T04:11:49.729Z,8.03
2017-04-21T04:12:58.636Z,8.01
2017-04-21T04:14:07.856Z,8.06
2017-04-21T04:15:17.071Z,8.01
2017-04-21T04:16:26.315Z,8.07
2017-04-21T04:17:35.589Z,8.04
2017-04-21T04:18:44.527Z,8.01
2017-04-21T04:19:53.162Z,8.03
2017-04-21T04:21:02.389Z,8.04
2017-04-21T04:22:11.929Z,8.06
2017-04-21T04:23:21.206Z,8.07
2017-04-21T04:24:30.113Z,8.01
2017-04-21T04:25:39.334Z,8.03
2017-04-21T04:26:48.561Z,8.04
2017-04-21T04:27:57.784Z,7.99
2017-04-21T04:29:06.690Z,8.03
2017-04-21T04:30:15.926Z,8.04
2017-04-21T04:31:24.513Z,8.01
2017-04-21T04:32:33.745Z,8.01
2017-04-21T04:33:42.322Z,8.09
2017-04-21T04:34:51.542Z,8.06
2017-04-21T04:36:00.760Z,8.01
2017-04-21T04:37:09.353Z,8.09
2017-04-21T04:38:18.313Z,8.06
2017-04-21T04:39:26.893Z,8.06
2017-04-21T04:40:36.113Z,8.17
2017-04-21T04:41:45.022Z,8.11
2017-04-21T04:42:54.183Z,8.17
2017-04-21T04:44:03.267Z,8.11
2017-04-21T04:45:12.723Z,8.11
2017-04-21T04:46:21.807Z,8.19
2017-04-21T04:47:30.389Z,8.13
2017-04-21T04:48:39.295Z,8.24
2017-04-21T04:49:48.838Z,8.17
2017-04-21T04:50:57.747Z,8.28
2017-04-21T04:52:06.646Z,8.26
2017-04-21T04:53:15.556Z,8.21
2017-04-21T04:54:25.092Z,8.24
2017-04-21T04:55:33.681Z,8.35
2017-04-21T04:56:42.898Z,8.28
2017-04-21T04:57:51.804Z,8.31
2017-04-21T04:59:01.035Z,8.39
2017-04-21T05:00:10.253Z,8.35
2017-04-21T05:01:19.155Z,8.35
2017-04-21T05:02:28.373Z,8.42
2017-04-21T05:03:37.918Z,8.36
2017-04-21T05:04:46.816Z,8.35
2017-04-21T05:05:55.726Z,8.32
2017-04-21T05:07:04.626Z,8.44
2017-04-21T05:08:13.847Z,8.44
2017-04-21T05:09:23.081Z,8.36
2017-04-21T05:10:31.671Z,8.39
2017-04-21T05:11:40.890Z,8.36
2017-04-21T05:12:50.114Z,8.34
2017-04-21T05:13:59.342Z,8.42
2017-04-21T05:15:08.562Z,8.39
2017-04-21T05:16:17.782Z,8.39
2017-04-21T05:17:27.013Z,8.43
2017-04-21T05:18:36.232Z,8.46
2017-04-21T05:19:45.450Z,8.46
2017-04-21T05:20:54.987Z,8.46
2017-04-21T05:22:04.848Z,8.4
2017-04-21T05:23:13.752Z,8.42
2017-04-21T05:24:22.356Z,8.43
2017-04-21T05:25:31.636Z,8.57
2017-04-21T05:26:40.221Z,8.52
2017-04-21T05:27:49.454Z,8.5
2017-04-21T05:28:58.682Z,8.52
2017-04-21T05:30:07.674Z,8.53
2017-04-21T05:31:16.921Z,8.52
2017-04-21T05:32:26.778Z,8.57
2017-04-21T05:33:36.322Z,8.53
2017-04-21T05:34:44.911Z,8.58
2017-04-21T05:35:54.141Z,8.58
2017-04-21T05:37:03.377Z,8.62
2017-04-21T05:38:15.335Z,8.61
2017-04-21T05:39:23.922Z,8.62
2017-04-21T05:40:33.140Z,8.64
2017-04-21T05:41:42.042Z,8.61
2017-04-21T05:42:51.775Z,8.69
2017-04-21T05:44:00.826Z,8.68
2017-04-21T05:45:09.426Z,8.67
2017-04-21T05:46:18.849Z,8.71
2017-04-21T05:47:27.430Z,8.72
2017-04-21T05:48:36.328Z,8.76
2017-04-21T05:49:45.381Z,8.72
2017-04-21T05:50:54.393Z,8.76
2017-04-21T05:52:03.618Z,8.76
2017-04-21T05:53:13.270Z,8.89
2017-04-21T05:54:22.491Z,8.82
2017-04-21T05:55:32.027Z,8.87
2017-04-21T05:56:40.922Z,8.82
2017-04-21T05:57:49.825Z,8.89
2017-04-21T05:58:58.726Z,8.86
2017-04-21T06:00:07.637Z,8.86
2017-04-21T06:01:16.858Z,8.85
2017-04-21T06:02:26.080Z,8.97
2017-04-21T06:03:34.982Z,8.82
2017-04-21T06:04:43.885Z,8.87
2017-04-21T06:05:52.784Z,8.89
2017-04-21T06:07:02.006Z,8.95
2017-04-21T06:08:10.927Z,9
2017-04-21T06:09:20.475Z,8.97
2017-04-21T06:10:31.417Z,8.9
2017-04-21T06:11:40.327Z,8.92
2017-04-21T06:12:49.237Z,9.01
2017-04-21T06:13:58.458Z,8.92
2017-04-21T06:15:07.374Z,8.97
2017-04-21T06:16:16.272Z,8.9
2017-04-21T06:17:25.176Z,8.89
2017-04-21T06:18:34.714Z,8.95
2017-04-21T06:19:43.941Z,8.98
2017-04-21T06:20:53.163Z,9
2017-04-21T06:22:02.071Z,9.08
2017-04-21T06:23:10.976Z,9.08
2017-04-21T06:24:20.192Z,9.11
2017-04-21T06:25:29.103Z,9.11
2017-04-21T06:26:38.315Z,9.16
2017-04-21T06:27:47.538Z,8.98
2017-04-21T06:28:56.765Z,9.11
2017-04-21T06:30:06.298Z,9.12
2017-04-21T06:31:15.522Z,9.08
2017-04-21T06:32:24.441Z,9.19
2017-04-21T06:33:33.676Z,9.16
2017-04-21T06:34:42.590Z,9.21
2017-04-21T06:35:51.495Z,9.16
2017-04-21T06:37:00.080Z,9.23
2017-04-21T06:38:09.292Z,9.19
2017-04-21T06:39:17.881Z,9.19
2017-04-21T06:40:27.420Z,9.2
2017-04-21T06:41:36.332Z,9.19
2017-04-21T06:42:45.547Z,9.24
2017-04-21T06:43:54.134Z,9.24
2017-04-21T06:45:03.030Z,9.26
2017-04-21T06:46:11.941Z,9.29
2017-04-21T06:47:20.538Z,9.32
2017-04-21T06:48:29.448Z,9.27
2017-04-21T06:49:38.824Z,9.39
2017-04-21T06:50:48.361Z,9.39
2017-04-21T06:51:57.577Z,9.41
2017-04-21T06:53:06.165Z,9.39
2017-04-21T06:54:15.384Z,9.41
2017-04-21T06:55:24.096Z,9.48
2017-04-21T06:56:33.001Z,9.5
2017-04-21T06:57:42.225Z,9.52
2017-04-21T06:58:51.461Z,9.45
2017-04-21T07:00:00.384Z,9.6
2017-04-21T07:01:09.184Z,9.57
2017-04-21T07:02:18.129Z,9.5
2017-04-21T07:03:27.033Z,9.63
2017-04-21T07:04:36.825Z,9.62
2017-04-21T07:05:46.097Z,9.6
2017-04-21T07:06:55.318Z,9.59
2017-04-21T07:08:04.222Z,9.62
2017-04-21T07:09:13.131Z,9.7
2017-04-21T07:10:22.672Z,9.56
2017-04-21T07:11:31.591Z,9.53
2017-04-21T07:12:40.179Z,9.64
2017-04-21T07:13:48.774Z,9.57
2017-04-21T07:14:58.640Z,9.6
2017-04-21T07:16:08.182Z,9.55
2017-04-21T07:17:16.799Z,9.55
2017-04-21T07:18:25.392Z,9.62
2017-04-21T07:19:33.981Z,9.6
2017-04-21T07:20:42.713Z,9.55
2017-04-21T07:21:51.938Z,9.56
2017-04-21T07:23:00.532Z,9.48
2017-04-21T07:24:09.459Z,9.55
2017-04-21T07:25:18.048Z,9.52
2017-04-21T07:26:27.875Z,9.52
2017-04-21T07:27:36.785Z,9.52
2017-04-21T07:28:45.685Z,9.55
2017-04-21T07:29:54.926Z,9.53
2017-04-21T07:31:04.551Z,9.5
2017-04-21T07:32:13.776Z,9.55
2017-04-21T07:33:22.679Z,9.64
2017-04-21T07:34:31.918Z,9.7
2017-04-21T07:36:04.063Z,9.71
2017-04-21T07:38:45.492Z,9.95
2017-04-21T07:39:54.721Z,9.96
2017-04-21T07:41:33.740Z,10.18
2017-04-21T07:42:42.833Z,10.23
2017-04-21T07:43:52.187Z,10.36
2017-04-21T07:45:01.094Z,10.47
2017-04-21T07:46:10.006Z,10.55
2017-04-21T07:47:18.918Z,10.65
2017-04-21T07:48:27.887Z,10.72
2017-04-21T07:49:36.500Z,10.9
2017-04-21T07:50:45.725Z,10.98
2017-04-21T07:51:54.943Z,11.16
2017-04-21T07:53:03.930Z,11.27
2017-04-21T07:54:13.159Z,11.3
2017-04-21T07:55:22.073Z,11.42
2017-04-21T07:56:31.296Z,11.57
2017-04-21T07:57:40.194Z,11.57
2017-04-21T07:58:48.863Z,11.66
2017-04-21T08:01:53.397Z,11.98
2017-04-21T08:03:04.469Z,12.1
2017-04-21T08:04:14.006Z,12.05
2017-04-21T08:05:22.595Z,12.25
2017-04-21T08:06:31.183Z,12.2
2017-04-21T08:07:40.083Z,12.33
2017-04-21T08:08:48.669Z,12.45
2017-04-21T08:09:57.906Z,12.51
2017-04-21T08:11:07.136Z,12.61
2017-04-21T08:12:16.047Z,12.78
2017-04-21T08:13:24.842Z,12.63
2017-04-21T08:14:34.466Z,12.69
2017-04-21T08:15:43.520Z,12.69
2017-04-21T08:16:52.818Z,12.7
2017-04-21T08:18:01.726Z,12.86
2017-04-21T08:19:10.635Z,12.92
2017-04-21T08:20:19.863Z,13.1
2017-04-21T08:21:29.518Z,13.25
2017-04-21T08:22:39.333Z,13.25
2017-04-21T08:23:47.971Z,13.17
2017-04-21T08:24:56.849Z,13.24
2017-04-21T08:26:05.925Z,13.42
2017-04-21T08:27:15.993Z,13.55
2017-04-21T08:28:24.930Z,13.72
2017-04-21T08:29:34.879Z,13.72
2017-04-21T08:30:44.533Z,13.94
2017-04-21T08:31:54.004Z,14.02
2017-04-21T08:33:03.345Z,13.99
2017-04-21T08:34:12.127Z,14.03
2017-04-21T08:35:21.080Z,14.09
2017-04-21T08:36:30.009Z,14.16
2017-04-21T08:37:38.655Z,14.12
2017-04-21T08:38:47.574Z,14.21
2017-04-21T08:39:56.550Z,14.26
2017-04-21T08:41:05.782Z,14.24
2017-04-21T08:42:14.693Z,14.19
2017-04-21T08:43:24.555Z,14.23
2017-04-21T08:44:33.465Z,14.19
2017-04-21T08:45:42.373Z,14.2
2017-04-21T08:46:51.310Z,14.13
2017-04-21T08:48:00.987Z,14.01
2017-04-21T08:49:10.541Z,13.95
2017-04-21T08:50:19.939Z,13.9
2017-04-21T08:51:29.508Z,14.02
2017-04-21T08:52:38.770Z,13.93
2017-04-21T08:53:47.369Z,13.93
2017-04-21T08:54:56.639Z,13.91
2017-04-21T08:56:06.191Z,13.88
2017-04-21T08:57:15.097Z,13.88
2017-04-21T08:58:24.321Z,13.93
2017-04-21T08:59:33.252Z,13.94
2017-04-21T09:00:42.159Z,13.91
2017-04-21T09:01:51.066Z,13.97
2017-04-21T09:03:00.291Z,13.9
2017-04-21T09:04:09.207Z,13.86
2017-04-21T09:05:17.804Z,13.79
2017-04-21T09:06:27.032Z,13.76
2017-04-21T09:07:36.258Z,13.75
2017-04-21T09:08:44.851Z,13.78
2017-04-21T09:09:53.817Z,13.7
2017-04-21T09:11:03.207Z,13.75
2017-04-21T09:12:12.133Z,13.63
2017-04-21T09:13:21.041Z,13.6
2017-04-21T09:14:30.327Z,13.57
2017-04-21T09:15:39.256Z,13.55
2017-04-21T09:16:48.247Z,13.51
2017-04-21T09:17:57.195Z,13.54
2017-04-21T09:19:06.433Z,13.6
2017-04-21T09:20:15.355Z,13.66
2017-04-21T09:21:24.698Z,13.69
2017-04-21T09:22:34.316Z,13.78
2017-04-21T09:23:43.861Z,13.84
2017-04-21T09:24:52.598Z,14.03
2017-04-21T09:26:01.641Z,13.97
2017-04-21T09:27:10.867Z,14.08
2017-04-21T09:28:20.088Z,14.15
2017-04-21T09:29:29.009Z,14.24
2017-04-21T09:31:04.962Z,14.19
2017-04-21T09:32:56.836Z,14.16
2017-04-21T09:35:38.172Z,14.28
2017-04-21T09:37:22.147Z,14.42
2017-04-21T09:38:58.387Z,14.59
2017-04-21T09:40:07.002Z,14.59
2017-04-21T09:41:16.252Z,14.49
2017-04-21T09:42:25.165Z,14.6
2017-04-21T09:44:10.603Z,14.69
2017-04-21T09:45:23.310Z,14.64
2017-04-21T09:46:32.469Z,14.64
2017-04-21T09:47:41.475Z,14.69
2017-04-21T09:48:50.382Z,14.67
2017-04-21T09:49:59.044Z,14.66
2017-04-21T09:51:34.357Z,14.67
2017-04-21T10:00:42.943Z,15.31
2017-04-21T10:07:52.008Z,15.52
2017-04-21T10:09:42.099Z,15.55
2017-04-21T10:10:51.459Z,15.62
2017-04-21T10:12:00.700Z,15.62
2017-04-21T10:13:09.623Z,15.56
2017-04-21T10:14:18.535Z,15.53
2017-04-21T10:15:28.088Z,15.6
2017-04-21T10:16:37.005Z,15.67
2017-04-21T10:17:45.934Z,15.67
2017-04-21T10:18:55.483Z,15.8
2017-04-21T10:20:04.716Z,15.74
2017-04-21T10:21:14.096Z,15.83
2017-04-21T10:22:23.496Z,15.68
2017-04-21T10:23:32.411Z,15.81
2017-04-21T10:24:41.642Z,15.77
2017-04-21T10:25:50.553Z,15.78
2017-04-21T10:26:59.775Z,15.8
2017-04-21T10:28:09.006Z,15.86
2017-04-21T10:29:18.436Z,15.86
2017-04-21T10:30:27.965Z,15.78
2017-04-21T10:31:37.193Z,15.86
2017-04-21T10:32:46.734Z,15.96
2017-04-21T10:33:56.291Z,15.93
2017-04-21T10:35:05.524Z,15.92
2017-04-21T10:36:14.757Z,15.99
2017-04-21T10:37:23.991Z,15.92
2017-04-21T10:38:33.223Z,16.04
2017-04-21T10:39:42.146Z,15.92
2017-04-21T10:40:51.398Z,15.88
2017-04-21T10:42:00.300Z,15.84
2017-04-21T10:43:09.850Z,15.86
2017-04-21T10:44:19.442Z,15.86
2017-04-21T10:45:28.527Z,15.89
2017-04-21T10:46:37.131Z,15.77
2017-04-21T10:47:46.793Z,15.84
2017-04-21T10:48:55.854Z,15.95
2017-04-21T10:50:05.255Z,16
2017-04-21T10:51:14.986Z,16.14
2017-04-21T10:52:23.578Z,16.25
2017-04-21T10:53:32.815Z,16.25
2017-04-21T10:54:41.427Z,16.39
2017-04-21T10:55:50.095Z,16.44
2017-04-21T10:57:00.011Z,16.51
2017-04-21T10:58:08.627Z,16.67
2017-04-21T10:59:17.549Z,16.67
2017-04-21T11:00:27.609Z,16.7
2017-04-21T11:01:36.519Z,16.77
2017-04-21T11:02:45.116Z,16.84
2017-04-21T11:03:54.353Z,16.88
2017-04-21T11:05:03.603Z,16.94
2017-04-21T11:06:12.825Z,16.97
2017-04-21T11:07:21.422Z,16.97
2017-04-21T11:08:30.666Z,17.15
2017-04-21T11:09:39.904Z,17.2
2017-04-21T11:10:48.820Z,17.32
2017-04-21T11:11:58.051Z,17.4
2017-04-21T11:13:07.275Z,17.62
2017-04-21T11:14:16.824Z,17.66
2017-04-21T11:15:26.053Z,17.76
2017-04-21T11:16:35.277Z,17.87
2017-04-21T11:17:43.866Z,17.99
2017-04-21T11:18:52.786Z,18.01
2017-04-21T11:20:02.097Z,18.14
2017-04-21T11:21:11.335Z,18.13
2017-04-21T11:22:20.562Z,18.29
2017-04-21T11:23:29.790Z,18.29
2017-04-21T11:24:39.022Z,18.16
2017-04-21T11:25:48.255Z,18.29
2017-04-21T11:26:57.317Z,18.26
2017-04-21T11:28:06.731Z,18.36
2017-04-21T11:29:16.102Z,18.38
2017-04-21T11:30:25.185Z,18.45
2017-04-21T11:31:34.105Z,18.45
2017-04-21T11:32:42.736Z,18.53
2017-04-21T11:33:52.169Z,18.51
2017-04-21T11:35:00.796Z,18.51
2017-04-21T11:36:09.440Z,18.49
2017-04-21T11:37:19.023Z,18.53
2017-04-21T11:38:28.254Z,18.6
2017-04-21T11:39:37.599Z,18.61
2017-04-21T11:40:46.289Z,18.65
2017-04-21T11:41:55.198Z,18.69
2017-04-21T11:43:04.709Z,18.76
2017-04-21T11:44:13.609Z,18.65
2017-04-21T11:45:23.667Z,18.74
2017-04-21T11:46:32.604Z,18.81
2017-04-21T11:47:41.849Z,18.81
2017-04-21T11:48:51.403Z,18.84
2017-04-21T11:50:00.638Z,18.91
2017-04-21T11:51:09.237Z,19.02
2017-04-21T11:52:18.366Z,19
2017-04-21T11:53:27.304Z,19.05
2017-04-21T11:54:36.863Z,18.96
2017-04-21T11:55:45.794Z,19.06
2017-04-21T11:56:54.849Z,19.2
2017-04-21T11:58:03.758Z,19.1
2017-04-21T11:59:12.866Z,19.17
2017-04-21T12:00:22.059Z,19.24
2017-04-21T12:01:31.602Z,19.25
2017-04-21T12:02:41.415Z,19.28
2017-04-21T12:03:50.647Z,19.42
2017-04-21T12:04:59.900Z,19.37
2017-04-21T12:06:09.122Z,19.52
2017-04-21T12:07:17.721Z,19.46
2017-04-21T12:08:26.636Z,19.5
2017-04-21T12:09:35.866Z,19.55
2017-04-21T12:10:45.709Z,19.57
2017-04-21T12:11:54.950Z,19.53
2017-04-21T12:13:03.540Z,19.53
2017-04-21T12:14:13.128Z,19.46
2017-04-21T12:15:22.042Z,19.43
2017-04-21T12:16:31.274Z,19.52
2017-04-21T12:17:40.495Z,19.49
2017-04-21T12:18:49.127Z,19.56
2017-04-21T12:19:58.380Z,19.63
2017-04-21T12:21:07.286Z,19.64
2017-04-21T12:22:16.515Z,19.67
2017-04-21T12:23:26.104Z,19.75
2017-04-21T12:24:35.021Z,19.72
2017-04-21T12:25:44.562Z,19.74
2017-04-21T12:26:54.111Z,19.78
2017-04-21T12:28:03.113Z,19.75
2017-04-21T12:29:12.968Z,19.82
2017-04-21T12:30:22.529Z,19.86
2017-04-21T12:31:31.118Z,19.75
2017-04-21T12:32:41.001Z,19.83
2017-04-21T12:33:51.464Z,19.75
2017-04-21T12:35:00.713Z,19.85
2017-04-21T12:36:09.940Z,19.89
2017-04-21T12:37:18.878Z,19.92
2017-04-21T12:38:28.109Z,19.86
2017-04-21T12:39:36.707Z,19.89
2017-04-21T12:40:45.625Z,19.85
2017-04-21T12:41:54.536Z,19.71
2017-04-21T12:43:03.759Z,19.86
2017-04-21T12:44:12.683Z,19.75
2017-04-21T12:45:22.224Z,19.65
2017-04-21T12:46:31.131Z,19.55
2017-04-21T12:47:40.045Z,19.42
2017-04-21T12:48:48.964Z,19.34
2017-04-21T12:49:58.844Z,19.25
2017-04-21T12:51:08.076Z,19.17
2017-04-21T12:52:17.312Z,19.09
2017-04-21T12:53:26.534Z,18.94
2017-04-21T12:54:35.442Z,18.79
2017-04-21T12:55:44.670Z,18.82
2017-04-21T12:56:53.901Z,18.86
2017-04-21T12:58:03.130Z,18.69
2017-04-21T12:59:11.722Z,18.53
2017-04-21T13:00:21.264Z,18.45
2017-04-21T13:01:30.174Z,18.35
2017-04-21T13:02:39.083Z,18.34
2017-04-21T13:03:47.995Z,18.36
2017-04-21T13:04:56.598Z,18.27
2017-04-21T13:06:05.832Z,18.2
2017-04-21T13:07:15.899Z,18.14
2017-04-21T13:08:25.438Z,18.13
2017-04-21T13:09:34.989Z,18.2
2017-04-21T13:10:44.060Z,18.13
2017-04-21T13:11:53.282Z,18.17
2017-04-21T13:13:01.873Z,18.19
2017-04-21T13:14:11.420Z,17.98
2017-04-21T13:15:20.026Z,18.02
2017-04-21T13:16:29.257Z,17.9
2017-04-21T13:17:37.853Z,17.84
2017-04-21T13:18:47.083Z,17.84
2017-04-21T13:19:55.699Z,17.9
2017-04-21T13:21:05.247Z,17.84
2017-04-21T13:22:13.841Z,17.9
2017-04-21T13:23:22.755Z,17.87
2017-04-21T13:24:32.615Z,17.88
2017-04-21T13:25:41.527Z,17.83
2017-04-21T13:26:50.974Z,17.77
2017-04-21T13:28:00.532Z,17.66
2017-04-21T13:29:09.848Z,17.6
2017-04-21T13:30:18.935Z,17.57
2017-04-21T13:31:28.527Z,17.4
2017-04-21T13:32:37.798Z,17.36
2017-04-21T13:33:46.702Z,17.3
2017-04-21T13:34:55.610Z,17.28
2017-04-21T13:36:04.231Z,17.22
2017-04-21T13:37:12.824Z,17.2
2017-04-21T13:38:22.059Z,17.17
2017-04-21T13:39:30.974Z,17.17
2017-04-21T13:40:39.566Z,17.13
2017-04-21T13:41:49.115Z,17
2017-04-21T13:42:57.710Z,17.05
2017-04-21T13:44:06.967Z,17.03
2017-04-21T13:45:16.191Z,17.07
2017-04-21T13:46:25.099Z,17.02
2017-04-21T13:47:34.006Z,16.99
2017-04-21T13:48:43.234Z,17.02
2017-04-21T13:49:51.835Z,16.95
2017-04-21T13:51:00.747Z,17.13
2017-04-21T13:52:09.987Z,17.07
2017-04-21T13:53:18.915Z,17.12
2017-04-21T13:54:28.472Z,17.09
2017-04-21T13:55:37.695Z,17.15
2017-04-21T13:56:46.302Z,17.17
2017-04-21T13:57:55.841Z,17.18
2017-04-21T13:59:04.767Z,17.31
2017-04-21T14:00:14.376Z,17.36
2017-04-21T14:01:23.421Z,17.45
2017-04-21T14:02:32.228Z,17.5
2017-04-21T14:03:41.446Z,17.46
2017-04-21T14:04:50.677Z,17.57
2017-04-21T14:05:59.597Z,17.52
2017-04-21T14:07:08.195Z,17.46
2017-04-21T14:08:17.132Z,17.36
2017-04-21T14:09:26.039Z,17.28
2017-04-21T14:10:34.958Z,17.13
2017-04-21T14:11:44.521Z,17.06
2017-04-21T14:12:53.755Z,16.88
2017-04-21T14:14:03.320Z,16.87
2017-04-21T14:15:12.415Z,16.82
2017-04-21T14:16:21.880Z,16.87
2017-04-21T14:17:30.677Z,16.81
2017-04-21T14:18:40.228Z,16.85
2017-04-21T14:19:49.143Z,16.84
2017-04-21T14:20:58.381Z,16.69
2017-04-21T14:22:07.298Z,16.7
2017-04-21T14:23:16.203Z,16.65
2017-04-21T14:24:25.433Z,16.8
2017-04-21T14:25:34.678Z,16.65
2017-04-21T14:26:43.586Z,16.65
2017-04-21T14:27:52.806Z,16.63
2017-04-21T14:29:02.354Z,16.67
2017-04-21T14:30:11.903Z,16.67
2017-04-21T14:31:20.809Z,16.55
2017-04-21T14:32:30.036Z,16.65
2017-04-21T14:33:38.938Z,16.65
2017-04-21T14:34:47.883Z,16.58
2017-04-21T14:35:57.110Z,16.69
2017-04-21T14:37:06.025Z,16.67
2017-04-21T14:38:14.929Z,16.69
2017-04-21T14:39:23.834Z,16.66
2017-04-21T14:40:32.747Z,16.73
2017-04-21T14:41:41.335Z,16.76
2017-04-21T14:42:50.886Z,16.8
2017-04-21T14:43:59.799Z,16.87
2017-04-21T14:45:08.721Z,16.82
2017-04-21T14:46:17.949Z,16.94
2017-04-21T14:47:26.860Z,16.92
2017-04-21T14:48:36.107Z,16.87
2017-04-21T14:49:45.499Z,17.05
2017-04-21T14:50:55.041Z,16.99
2017-04-21T14:52:05.197Z,17.07
2017-04-21T14:53:14.762Z,17.12
2017-04-21T14:54:23.675Z,17.17
2017-04-21T14:55:32.912Z,17.13
2017-04-21T14:56:42.074Z,17.13
2017-04-21T14:57:51.311Z,17.18
2017-04-21T14:59:00.564Z,17.03
2017-04-21T15:00:09.481Z,17.02
2017-04-21T15:01:19.031Z,17.05
2017-04-21T15:02:28.585Z,16.94
2017-04-21T15:03:38.132Z,16.88
2017-04-21T15:04:47.058Z,16.74
2017-04-21T15:05:55.963Z,16.65
2017-04-21T15:07:04.873Z,16.49
2017-04-21T15:08:14.114Z,16.51
2017-04-21T15:09:23.708Z,16.48
2017-04-21T15:10:33.381Z,16.52
2017-04-21T15:11:41.993Z,16.36
2017-04-21T15:12:51.459Z,16.36
2017-04-21T15:14:00.053Z,16.47
2017-04-21T15:15:09.290Z,16.4
2017-04-21T15:16:18.211Z,16.48
2017-04-21T15:17:27.123Z,16.37
2017-04-21T15:18:36.155Z,16.47
2017-04-21T15:19:45.395Z,16.47
2017-04-21T15:20:54.417Z,16.51
2017-04-21T15:22:03.840Z,16.58
2017-04-21T15:23:13.071Z,16.51
2017-04-21T15:24:21.845Z,16.51
2017-04-21T15:25:30.755Z,16.54
2017-04-21T15:26:39.670Z,16.44
2017-04-21T15:27:48.901Z,16.52
2017-04-21T15:28:57.890Z,16.4
2017-04-21T15:30:06.803Z,16.44
2017-04-21T15:31:15.817Z,16.3
2017-04-21T15:32:24.829Z,16.25